Terminal Aerodrome Forecast
Issued by NWS Rapid City, SD

Home | Current Version | Previous Version | Graphics & Text | Print | Product List | Glossary On
Versions: 1 2 3 4 5 6 7 8 9 10 11 12 13 14 15 16
000
FTUS43 KUNR 171723
TAFRAP
TAF
KRAP 171723Z 1718/1818 08015KT P6SM BKN020
     FM172000 35025G35KT 4SM -SHRASN SCT008 OVC012
      TEMPO 1722/1801 2SM -SHRASN OVC008
     FM180300 33022KT P6SM SCT050=

USA.gov is the U.S. government's official web portal to all federal, state and local government web resources and services.